createdAt,value
2022-10-22T00:01:52.016Z,3.92
2022-10-22T00:04:18.377Z,3.92
2022-10-22T00:06:45.065Z,4.22
2022-10-22T00:09:12.902Z,4.18
2022-10-22T00:11:39.710Z,4.75
2022-10-22T00:14:06.116Z,4.35
2022-10-22T00:16:32.539Z,4.40
2022-10-22T00:18:58.928Z,4.95
2022-10-22T00:21:28.884Z,4.00
2022-10-22T00:23:55.821Z,3.78
2022-10-22T00:26:22.901Z,4.78
2022-10-22T00:28:49.269Z,4.32
2022-10-22T00:31:15.724Z,4.20
2022-10-22T00:33:42.166Z,4.82
2022-10-22T00:36:08.902Z,4.18
2022-10-22T00:38:35.336Z,4.93
2022-10-22T00:43:33.093Z,4.50
2022-10-22T00:45:59.491Z,4.15
2022-10-22T00:48:28.278Z,3.75
2022-10-22T00:50:58.328Z,4.70
2022-10-22T00:53:28.840Z,4.00
2022-10-22T00:55:55.658Z,4.63
2022-10-22T00:58:27.734Z,4.25
2022-10-22T01:00:55.386Z,3.97
2022-10-22T01:03:22.261Z,4.15
2022-10-22T01:05:55.743Z,4.38
2022-10-22T01:08:44.052Z,4.05
2022-10-22T01:11:35.771Z,4.00
2022-10-22T01:14:21.828Z,4.60
2022-10-22T01:16:57.279Z,4.60
2022-10-22T01:19:32.893Z,3.90
2022-10-22T01:22:23.757Z,4.10
2022-10-22T01:25:09.341Z,3.97
2022-10-22T01:27:44.762Z,4.13
2022-10-22T01:30:12.878Z,4.22
2022-10-22T01:32:54.889Z,3.80
2022-10-22T01:35:31.188Z,3.80
2022-10-22T01:38:00.160Z,3.65
2022-10-22T01:40:27.156Z,3.90
2022-10-22T01:42:58.450Z,4.22
2022-10-22T01:45:25.212Z,4.07
2022-10-22T01:48:13.410Z,3.70
2022-10-22T01:50:45.909Z,4.30
2022-10-22T01:53:24.808Z,3.65
2022-10-22T01:56:10.220Z,3.90
2022-10-22T01:58:39.534Z,4.78
2022-10-22T02:01:13.526Z,3.75
2022-10-22T02:04:09.989Z,3.75
2022-10-22T02:06:37.427Z,4.35
2022-10-22T02:09:04.056Z,3.60
2022-10-22T02:11:30.486Z,3.83
2022-10-22T02:13:59.511Z,3.90
2022-10-22T02:16:30.709Z,3.67
2022-10-22T02:18:58.452Z,3.58
2022-10-22T02:21:24.971Z,3.58
2022-10-22T02:23:51.617Z,3.60
2022-10-22T02:26:38.557Z,3.65
2022-10-22T02:29:15.333Z,3.40
2022-10-22T02:31:43.710Z,3.72
2022-10-22T02:34:16.785Z,3.22
2022-10-22T02:36:46.736Z,4.07
2022-10-22T02:39:17.785Z,3.40
2022-10-22T02:41:44.280Z,3.67
2022-10-22T02:44:11.109Z,3.50
2022-10-22T02:46:39.161Z,3.63
2022-10-22T02:49:05.961Z,3.63
2022-10-22T02:51:32.353Z,4.18
2022-10-22T02:53:58.764Z,3.90
2022-10-22T02:56:25.134Z,3.50
2022-10-22T02:58:51.500Z,3.95
2022-10-22T03:01:17.901Z,3.72
2022-10-22T03:03:44.361Z,4.72
2022-10-22T03:06:10.743Z,4.03
2022-10-22T03:08:37.147Z,4.53
2022-10-22T03:11:03.990Z,4.15
2022-10-22T03:13:30.366Z,4.53
2022-10-22T03:15:56.733Z,4.38
2022-10-22T03:18:23.155Z,4.43
2022-10-22T03:20:49.567Z,4.60
2022-10-22T03:23:18.390Z,3.53
2022-10-22T03:25:45.912Z,4.10
2022-10-22T03:28:14.114Z,4.82
2022-10-22T03:30:40.508Z,4.45
2022-10-22T03:33:06.866Z,4.25
2022-10-22T03:35:36.584Z,4.10
2022-10-22T03:40:29.305Z,4.45
2022-10-22T03:42:55.733Z,4.55
2022-10-22T03:45:22.097Z,4.35
2022-10-22T03:47:48.455Z,4.90
2022-10-22T03:50:15.046Z,5.30
2022-10-22T03:52:41.441Z,5.00
2022-10-22T03:55:09.820Z,4.68
2022-10-22T03:57:36.778Z,4.80
2022-10-22T04:00:04.639Z,4.40
2022-10-22T04:02:31.004Z,4.68
2022-10-22T04:04:57.382Z,5.00
2022-10-22T04:07:23.746Z,5.30
2022-10-22T04:09:50.118Z,5.55
2022-10-22T04:12:16.495Z,4.82
2022-10-22T04:14:42.938Z,5.05
2022-10-22T04:17:09.321Z,5.38
2022-10-22T04:19:35.788Z,5.28
2022-10-22T04:22:02.173Z,5.95
2022-10-22T04:24:30.839Z,4.80
2022-10-22T04:26:57.262Z,4.85
2022-10-22T04:29:24.402Z,5.32
2022-10-22T04:31:51.058Z,5.40
2022-10-22T04:34:17.443Z,5.68
2022-10-22T04:36:43.823Z,4.65
2022-10-22T04:39:10.176Z,5.00
2022-10-22T04:41:38.744Z,5.13
2022-10-22T04:44:06.520Z,4.10
2022-10-22T04:46:34.823Z,5.55
2022-10-22T04:49:03.277Z,4.95
2022-10-22T04:51:29.853Z,5.30
2022-10-22T04:53:56.261Z,5.20
2022-10-22T04:56:30.400Z,5.50
2022-10-22T04:59:02.331Z,4.82
2022-10-22T05:01:37.009Z,4.80
2022-10-22T05:04:08.679Z,4.88
2022-10-22T05:06:36.395Z,5.25
2022-10-22T05:09:08.644Z,4.70
2022-10-22T05:11:37.089Z,5.95
2022-10-22T05:14:05.616Z,5.57
2022-10-22T05:16:33.178Z,5.45
2022-10-22T05:19:00.510Z,5.18
2022-10-22T05:21:27.368Z,5.10
2022-10-22T05:23:54.908Z,5.38
2022-10-22T05:26:22.568Z,5.15
2022-10-22T05:28:49.836Z,5.07
2022-10-22T05:31:17.528Z,5.40
2022-10-22T05:33:44.356Z,5.18
2022-10-22T05:36:17.191Z,5.30
2022-10-22T05:38:43.601Z,5.30
2022-10-22T05:41:12.371Z,5.05
2022-10-22T05:43:38.828Z,5.20
2022-10-22T05:46:07.962Z,5.22
2022-10-22T05:48:34.612Z,6.38
2022-10-22T05:51:06.315Z,4.97
2022-10-22T05:53:33.718Z,5.82
2022-10-22T05:56:05.545Z,4.70
2022-10-22T05:58:32.373Z,4.88
2022-10-22T06:01:16.188Z,5.00
2022-10-22T06:03:43.628Z,4.88
2022-10-22T06:06:34.931Z,4.72
2022-10-22T06:09:19.585Z,5.45
2022-10-22T06:11:51.854Z,5.38
2022-10-22T06:14:19.371Z,4.57
2022-10-22T06:17:23.747Z,4.72
2022-10-22T06:19:56.063Z,5.78
2022-10-22T06:22:22.546Z,5.78
2022-10-22T06:24:48.975Z,5.40
2022-10-22T06:27:15.411Z,5.63
2022-10-22T06:29:41.845Z,5.28
2022-10-22T06:32:08.285Z,5.35
2022-10-22T06:34:34.729Z,5.25
2022-10-22T06:37:01.111Z,5.35
2022-10-22T06:39:27.663Z,4.97
2022-10-22T06:41:54.070Z,4.95
2022-10-22T06:44:20.788Z,5.32
2022-10-22T06:46:51.989Z,5.03
2022-10-22T06:49:19.318Z,5.47
2022-10-22T06:51:48.868Z,5.35
2022-10-22T06:54:15.238Z,4.90
2022-10-22T06:56:41.720Z,4.57
2022-10-22T06:59:08.085Z,5.43
2022-10-22T07:01:35.362Z,5.10
2022-10-22T07:04:02.289Z,5.18
2022-10-22T07:06:29.174Z,4.97
2022-10-22T07:08:57.319Z,5.22
2022-10-22T07:11:26.721Z,4.72
2022-10-22T07:13:57.927Z,6.18
2022-10-22T07:16:29.571Z,4.22
2022-10-22T07:18:58.948Z,4.72
2022-10-22T07:21:26.087Z,4.40
2022-10-22T07:23:52.557Z,4.55
2022-10-22T07:26:20.351Z,4.40
2022-10-22T07:28:47.129Z,4.47
2022-10-22T07:31:14.966Z,4.80
2022-10-22T07:33:41.380Z,4.18
2022-10-22T07:36:09.632Z,4.00
2022-10-22T07:38:36.036Z,4.15
2022-10-22T07:41:03.182Z,4.20
2022-10-22T07:43:29.829Z,4.30
2022-10-22T07:45:56.191Z,4.15
2022-10-22T07:48:23.365Z,4.53
2022-10-22T07:50:52.943Z,4.38
2022-10-22T07:53:21.134Z,3.97
2022-10-22T07:55:51.729Z,3.40
2022-10-22T07:58:18.681Z,3.88
2022-10-22T08:00:45.481Z,4.10
2022-10-22T08:03:12.515Z,4.57
2022-10-22T08:05:43.723Z,3.80
2022-10-22T08:08:11.138Z,3.75
2022-10-22T08:10:37.995Z,3.42
2022-10-22T08:13:04.499Z,3.33
2022-10-22T08:15:31.112Z,3.50
2022-10-22T08:17:57.487Z,3.28
2022-10-22T08:20:23.857Z,3.30
2022-10-22T08:22:50.246Z,3.83
2022-10-22T08:25:17.997Z,3.30
2022-10-22T08:27:44.804Z,3.58
2022-10-22T08:30:12.301Z,3.65
2022-10-22T08:32:38.726Z,3.70
2022-10-22T08:35:05.269Z,3.13
2022-10-22T08:37:31.646Z,3.30
2022-10-22T08:39:58.030Z,3.45
2022-10-22T08:42:42.928Z,3.38
2022-10-22T08:45:13.390Z,3.42
2022-10-22T08:47:52.954Z,3.58
2022-10-22T08:50:24.671Z,3.40
2022-10-22T08:52:54.260Z,3.17
2022-10-22T08:57:49.930Z,3.75
2022-10-22T09:00:40.204Z,3.47
2022-10-22T09:03:36.585Z,3.13
2022-10-22T09:06:05.944Z,3.70
2022-10-22T09:08:32.487Z,3.08
2022-10-22T09:11:06.114Z,3.28
2022-10-22T09:13:32.646Z,4.00
2022-10-22T09:16:23.640Z,3.60
2022-10-22T09:19:02.197Z,3.58
2022-10-22T09:21:52.700Z,3.35
2022-10-22T09:24:39.767Z,3.10
2022-10-22T09:27:16.045Z,3.40
2022-10-22T09:29:43.945Z,3.35
2022-10-22T09:32:10.522Z,3.53
2022-10-22T09:34:37.068Z,3.60
2022-10-22T09:37:06.756Z,3.63
2022-10-22T09:42:06.701Z,3.92
2022-10-22T09:44:34.937Z,2.92
2022-10-22T09:47:37.251Z,3.10
2022-10-22T09:50:27.951Z,3.30
2022-10-22T09:52:59.152Z,3.28
2022-10-22T09:55:26.310Z,3.20
2022-10-22T09:57:57.516Z,3.13
2022-10-22T10:00:27.632Z,3.03
2022-10-22T10:02:58.350Z,3.42
2022-10-22T10:05:27.962Z,3.45
2022-10-22T10:07:54.327Z,3.80
2022-10-22T10:10:35.415Z,3.47
2022-10-22T10:13:40.647Z,3.10
2022-10-22T10:16:13.132Z,3.70
2022-10-22T10:18:57.931Z,3.10
2022-10-22T10:21:42.709Z,3.40
2022-10-22T10:24:22.119Z,4.13
2022-10-22T10:27:23.681Z,2.95
2022-10-22T10:30:06.588Z,3.63
2022-10-22T10:32:35.838Z,3.20
2022-10-22T10:35:22.133Z,3.40
2022-10-22T10:37:54.508Z,3.45
2022-10-22T10:40:33.609Z,3.65
2022-10-22T10:43:21.545Z,3.83
2022-10-22T10:45:57.453Z,3.22
2022-10-22T10:48:31.537Z,3.72
2022-10-22T10:51:32.333Z,3.22
2022-10-22T10:54:15.478Z,3.17
2022-10-22T10:56:45.859Z,3.50
2022-10-22T10:59:30.832Z,3.40
2022-10-22T11:02:21.605Z,3.22
2022-10-22T11:05:19.643Z,3.60
2022-10-22T11:08:03.713Z,3.92
2022-10-22T11:10:35.260Z,2.83
2022-10-22T11:13:22.873Z,2.78
2022-10-22T11:16:14.864Z,2.95
2022-10-22T11:18:56.425Z,2.70
2022-10-22T11:21:40.059Z,3.42
2022-10-22T11:24:30.290Z,2.65
2022-10-22T11:27:25.576Z,3.47
2022-10-22T11:29:56.334Z,2.75
2022-10-22T11:32:23.693Z,2.83
2022-10-22T11:34:54.250Z,2.65
2022-10-22T11:37:22.436Z,2.55
2022-10-22T11:39:55.212Z,2.20
2022-10-22T11:42:30.155Z,2.83
2022-10-22T11:45:13.168Z,2.45
2022-10-22T11:47:53.380Z,2.88
2022-10-22T11:50:22.710Z,3.25
2022-10-22T11:53:12.817Z,2.72
2022-10-22T11:56:10.148Z,2.65
2022-10-22T11:58:44.835Z,3.00
2022-10-22T12:01:11.156Z,2.70
2022-10-22T12:03:44.447Z,2.40
2022-10-22T12:06:15.465Z,2.65
2022-10-22T12:08:44.339Z,2.80
2022-10-22T12:11:10.615Z,2.55
2022-10-22T12:14:01.272Z,2.78
2022-10-22T12:16:43.955Z,3.08
2022-10-22T12:19:38.426Z,2.50
2022-10-22T12:22:07.719Z,3.10
2022-10-22T12:24:40.482Z,2.78
2022-10-22T12:27:37.697Z,2.65
2022-10-22T12:30:28.426Z,2.75
2022-10-22T12:33:00.462Z,3.13
2022-10-22T12:35:29.114Z,3.00
2022-10-22T12:37:57.713Z,3.10
2022-10-22T12:40:26.396Z,2.70
2022-10-22T12:42:55.526Z,2.90
2022-10-22T12:45:23.748Z,3.40
2022-10-22T12:47:52.634Z,2.85
2022-10-22T12:50:21.470Z,2.65
2022-10-22T12:52:48.352Z,2.78
2022-10-22T12:55:20.076Z,2.53
2022-10-22T12:57:48.575Z,3.33
2022-10-22T13:00:26.552Z,2.42
2022-10-22T13:02:54.105Z,2.78
2022-10-22T13:05:23.454Z,2.70
2022-10-22T13:08:10.447Z,2.85
2022-10-22T13:10:41.484Z,2.83
2022-10-22T13:13:30.509Z,2.88
2022-10-22T13:15:56.881Z,2.75
2022-10-22T13:18:25.089Z,2.88
2022-10-22T13:20:52.634Z,3.10
2022-10-22T13:23:20.870Z,3.13
2022-10-22T13:26:17.122Z,2.30
2022-10-22T13:28:50.525Z,2.63
2022-10-22T13:31:23.956Z,2.67
2022-10-22T13:34:03.698Z,3.63
2022-10-22T13:36:34.347Z,3.10
2022-10-22T13:39:00.835Z,3.25
2022-10-22T13:41:30.964Z,2.88
2022-10-22T13:43:57.461Z,3.08
2022-10-22T13:46:25.147Z,3.50
2022-10-22T13:48:53.987Z,3.05
2022-10-22T13:51:22.862Z,3.80
2022-10-22T13:53:50.408Z,3.75
2022-10-22T13:56:18.471Z,2.90
2022-10-22T13:58:46.333Z,3.22
2022-10-22T14:01:18.671Z,3.28
2022-10-22T14:03:45.665Z,3.20
2022-10-22T14:06:14.052Z,3.45
2022-10-22T14:08:40.523Z,3.40
2022-10-22T14:11:10.111Z,3.10
2022-10-22T14:16:05.479Z,3.17
2022-10-22T14:18:33.040Z,3.67
2022-10-22T14:21:04.720Z,3.45
2022-10-22T14:23:32.270Z,3.40
2022-10-22T14:25:59.895Z,3.30
2022-10-22T14:28:26.468Z,3.15
2022-10-22T14:30:53.968Z,3.60
2022-10-22T14:33:29.043Z,3.10
2022-10-22T14:35:59.575Z,3.40
2022-10-22T14:38:26.125Z,3.25
2022-10-22T14:40:52.511Z,3.47
2022-10-22T14:43:22.703Z,3.63
2022-10-22T14:45:49.305Z,3.42
2022-10-22T14:48:16.142Z,3.13
2022-10-22T14:50:43.992Z,3.38
2022-10-22T14:53:11.153Z,3.17
2022-10-22T14:55:37.547Z,3.35
2022-10-22T14:58:03.935Z,4.25
2022-10-22T15:00:30.445Z,3.85
2022-10-22T15:02:59.648Z,3.40
2022-10-22T15:05:28.110Z,3.50
2022-10-22T15:07:54.520Z,4.30
2022-10-22T15:10:21.021Z,4.07
2022-10-22T15:12:47.376Z,3.28
2022-10-22T15:15:13.736Z,3.40
2022-10-22T15:17:40.462Z,3.47
2022-10-22T15:20:07.371Z,3.47
2022-10-22T15:22:35.284Z,4.43
2022-10-22T15:25:04.338Z,4.45
2022-10-22T15:27:30.985Z,4.18
2022-10-22T15:29:58.995Z,3.85
2022-10-22T15:32:26.557Z,3.83
2022-10-22T15:34:54.377Z,3.63
2022-10-22T15:37:21.209Z,3.75
2022-10-22T15:39:47.682Z,4.38
2022-10-22T15:42:14.515Z,3.85
2022-10-22T15:44:41.079Z,3.88
2022-10-22T15:47:07.928Z,5.28
2022-10-22T15:49:36.748Z,5.18
2022-10-22T15:52:04.471Z,4.35
2022-10-22T15:54:31.071Z,4.20
2022-10-22T15:56:59.756Z,5.22
2022-10-22T15:59:26.144Z,4.22
2022-10-22T16:01:52.558Z,4.57
2022-10-22T16:04:19.123Z,4.97
2022-10-22T16:06:47.637Z,4.60
2022-10-22T16:09:17.111Z,5.55
2022-10-22T16:14:15.269Z,4.30
2022-10-22T16:16:46.426Z,5.95
2022-10-22T16:19:13.977Z,5.32
2022-10-22T16:21:40.392Z,5.53
2022-10-22T16:24:08.018Z,5.30
2022-10-22T16:26:35.219Z,5.68
2022-10-22T16:29:01.891Z,6.03
2022-10-22T16:31:28.306Z,6.93
2022-10-22T16:33:55.369Z,6.93
2022-10-22T16:36:22.485Z,9.10
2022-10-22T16:38:49.052Z,8.00
2022-10-22T16:41:17.583Z,7.15
2022-10-22T16:43:46.889Z,6.93
2022-10-22T16:46:13.347Z,7.50
2022-10-22T16:48:41.988Z,7.20
2022-10-22T16:51:10.342Z,7.82
2022-10-22T16:53:36.946Z,8.18
2022-10-22T16:56:03.483Z,10.00
2022-10-22T16:58:29.918Z,8.30
2022-10-22T17:00:56.347Z,8.73
2022-10-22T17:03:24.613Z,10.18
2022-10-22T17:05:53.944Z,9.88
2022-10-22T17:08:20.334Z,9.98
2022-10-22T17:10:46.841Z,10.07
2022-10-22T17:13:13.209Z,10.52
2022-10-22T17:15:40.388Z,9.27
2022-10-22T17:18:06.781Z,8.68
2022-10-22T17:20:33.165Z,8.10
2022-10-22T17:22:59.510Z,8.32
2022-10-22T17:25:37.017Z,8.65
2022-10-22T17:28:03.415Z,10.82
2022-10-22T17:30:30.345Z,10.23
2022-10-22T17:32:56.759Z,13.15
2022-10-22T17:35:23.196Z,11.13
2022-10-22T17:37:49.588Z,11.27
2022-10-22T17:40:15.956Z,10.45
2022-10-22T17:42:42.620Z,10.35
2022-10-22T17:45:09.473Z,10.77
2022-10-22T17:47:36.298Z,11.13
2022-10-22T17:50:02.670Z,10.18
2022-10-22T17:52:29.022Z,9.43
2022-10-22T17:54:55.381Z,9.18
2022-10-22T17:57:23.037Z,8.57
2022-10-22T17:59:49.400Z,8.18
2022-10-22T18:02:17.726Z,8.38
2022-10-22T18:04:44.269Z,6.72
2022-10-22T18:07:10.773Z,7.53
2022-10-22T18:09:37.348Z,7.70
2022-10-22T18:12:03.805Z,7.57
2022-10-22T18:14:30.269Z,7.35
2022-10-22T18:16:56.687Z,7.50
2022-10-22T18:19:24.420Z,9.10
2022-10-22T18:21:50.816Z,8.80
2022-10-22T18:24:17.640Z,8.90
2022-10-22T18:26:44.313Z,12.90
2022-10-22T18:29:14.860Z,14.80
2022-10-22T18:31:41.372Z,14.82
2022-10-22T18:34:07.818Z,15.40
2022-10-22T18:36:34.292Z,14.32
2022-10-22T18:39:01.891Z,12.85
2022-10-22T18:41:30.021Z,12.80
2022-10-22T18:43:58.871Z,13.15
2022-10-22T18:46:26.292Z,12.10
2022-10-22T18:48:53.868Z,11.50
2022-10-22T18:51:20.714Z,11.25
2022-10-22T18:53:59.199Z,11.48
2022-10-22T18:56:36.696Z,11.68
2022-10-22T18:59:03.090Z,13.68
2022-10-22T19:01:29.566Z,13.40
2022-10-22T19:03:56.766Z,12.85
2022-10-22T19:06:33.325Z,13.32
2022-10-22T19:09:04.094Z,12.73
2022-10-22T19:11:30.650Z,12.40
2022-10-22T19:13:57.102Z,12.18
2022-10-22T19:16:23.959Z,12.30
2022-10-22T19:18:51.922Z,12.18
2022-10-22T19:21:18.590Z,11.73
2022-10-22T19:26:18.189Z,15.02
2022-10-22T19:28:45.267Z,16.10
2022-10-22T19:31:17.321Z,17.10
2022-10-22T19:33:43.741Z,18.25
2022-10-22T19:36:12.492Z,16.95
2022-10-22T19:38:40.944Z,15.85
2022-10-22T19:41:08.645Z,14.13
2022-10-22T19:43:35.012Z,14.43
2022-10-22T19:46:01.684Z,13.35
2022-10-22T19:48:29.669Z,13.25
2022-10-22T19:51:02.612Z,14.20
2022-10-22T19:53:30.492Z,13.25
2022-10-22T19:55:58.559Z,15.57
2022-10-22T19:58:25.367Z,12.95
2022-10-22T20:00:51.907Z,14.27
2022-10-22T20:03:19.965Z,13.88
2022-10-22T20:05:47.452Z,14.77
2022-10-22T20:08:13.989Z,14.40
2022-10-22T20:10:40.362Z,14.85
2022-10-22T20:13:06.727Z,14.35
2022-10-22T20:15:33.161Z,14.50
2022-10-22T20:17:59.906Z,12.93
2022-10-22T20:20:26.728Z,13.70
2022-10-22T20:22:54.063Z,14.57
2022-10-22T20:25:20.429Z,12.02
2022-10-22T20:27:46.795Z,12.40
2022-10-22T20:30:14.002Z,12.48
2022-10-22T20:32:40.905Z,13.30
2022-10-22T20:35:07.745Z,14.80
2022-10-22T20:37:34.379Z,12.35
2022-10-22T20:40:00.758Z,12.07
2022-10-22T20:42:27.226Z,12.75
2022-10-22T20:44:56.139Z,10.73
2022-10-22T20:47:44.700Z,10.88
2022-10-22T20:50:31.416Z,11.30
2022-10-22T20:52:58.358Z,11.18
2022-10-22T20:55:27.050Z,10.45
2022-10-22T21:10:37.401Z,10.15
2022-10-22T21:24:38.846Z,10.90
2022-10-22T21:43:05.890Z,12.15
2022-10-22T23:07:52.890Z,9.55
2022-10-22T23:16:46.657Z,10.48
2022-10-22T23:19:26.932Z,12.68
2022-10-22T23:22:25.003Z,11.38
2022-10-22T23:25:52.369Z,10.10
2022-10-22T23:32:00.525Z,11.60
2022-10-22T23:34:32.997Z,12.10
2022-10-22T23:37:05.217Z,10.65
2022-10-22T23:39:37.250Z,11.27
2022-10-22T23:42:10.637Z,10.23
2022-10-22T23:47:35.169Z,10.38
2022-10-22T23:50:37.311Z,10.60
2022-10-22T23:53:17.012Z,9.93
2022-10-22T23:55:52.827Z,9.90
2022-10-22T23:58:51.572Z,10.30
